createdAt,value
2023-02-08T00:01:08.033Z,29.17
2023-02-08T00:03:36.004Z,19.17
2023-02-08T00:06:04.343Z,20.85
2023-02-08T00:08:32.951Z,22.90
2023-02-08T00:11:02.225Z,26.50
2023-02-08T00:13:30.204Z,19.00
2023-02-08T00:15:58.216Z,18.52
2023-02-08T00:18:26.180Z,24.48
2023-02-08T00:20:55.602Z,19.15
2023-02-08T00:23:23.420Z,23.00
2023-02-08T00:25:51.257Z,14.00
2023-02-08T00:28:20.886Z,19.13
2023-02-08T00:30:49.944Z,19.30
2023-02-08T00:33:17.887Z,14.35
2023-02-08T00:35:45.836Z,21.23
2023-02-08T00:38:13.737Z,14.68
2023-02-08T00:40:42.082Z,23.30
2023-02-08T00:43:10.048Z,22.10
2023-02-08T00:45:39.862Z,24.77
2023-02-08T00:48:08.082Z,24.20
2023-02-08T00:50:43.374Z,22.90
2023-02-08T00:53:11.312Z,29.58
2023-02-08T00:55:39.111Z,26.33
2023-02-08T00:58:06.980Z,32.85
2023-02-08T01:00:34.855Z,20.52
2023-02-08T01:03:04.808Z,20.75
2023-02-08T01:05:32.661Z,23.25
2023-02-08T01:08:00.591Z,25.98
2023-02-08T01:10:28.526Z,20.85
2023-02-08T01:12:56.419Z,25.90
2023-02-08T01:15:24.302Z,32.30
2023-02-08T01:17:54.833Z,33.58
2023-02-08T01:20:25.062Z,22.15
2023-02-08T01:22:52.860Z,30.48
2023-02-08T01:25:20.770Z,26.90
2023-02-08T01:27:48.774Z,32.97
2023-02-08T01:30:17.594Z,36.22
2023-02-08T01:32:45.516Z,26.38
2023-02-08T01:35:13.677Z,29.85
2023-02-08T01:37:43.028Z,35.42
2023-02-08T01:40:12.187Z,33.28
2023-02-08T01:42:40.194Z,24.88
2023-02-08T01:45:30.071Z,34.60
2023-02-08T01:48:04.432Z,31.02
2023-02-08T01:50:37.563Z,40.25
2023-02-08T01:53:07.430Z,29.30
2023-02-08T01:55:39.554Z,53.58
2023-02-08T01:58:12.555Z,28.42
2023-02-08T02:00:41.115Z,33.88
2023-02-08T02:03:09.781Z,37.20
2023-02-08T02:05:42.444Z,31.35
2023-02-08T02:08:12.664Z,38.35
2023-02-08T02:10:42.591Z,31.77
2023-02-08T02:13:14.746Z,38.15
2023-02-08T02:15:44.608Z,37.25
2023-02-08T02:18:15.219Z,45.20
2023-02-08T02:20:59.997Z,43.75
2023-02-08T02:24:06.189Z,45.50
2023-02-08T02:27:05.838Z,32.83
2023-02-08T02:29:49.377Z,42.85
2023-02-08T02:32:36.067Z,35.80
2023-02-08T02:35:13.389Z,33.63
2023-02-08T02:37:54.038Z,39.08
2023-02-08T02:40:30.770Z,45.08
2023-02-08T02:43:29.472Z,34.55
2023-02-08T02:46:04.397Z,41.22
2023-02-08T02:48:39.852Z,44.85
2023-02-08T02:51:13.535Z,41.42
2023-02-08T02:53:48.911Z,37.63
2023-02-08T02:56:21.098Z,54.75
2023-02-08T02:58:49.640Z,47.13
2023-02-08T03:01:26.015Z,32.55
2023-02-08T03:03:54.809Z,51.60
2023-02-08T03:06:38.904Z,48.10
2023-02-08T03:09:22.875Z,44.85
2023-02-08T03:11:58.293Z,44.58
2023-02-08T03:14:35.946Z,38.38
2023-02-08T03:17:15.970Z,43.22
2023-02-08T03:19:52.124Z,38.28
2023-02-08T03:22:26.981Z,52.75
2023-02-08T03:24:58.085Z,55.70
2023-02-08T03:27:33.152Z,44.13
2023-02-08T03:30:07.314Z,34.13
2023-02-08T03:32:41.967Z,29.90
2023-02-08T03:35:16.282Z,55.22
2023-02-08T03:37:50.069Z,41.75
2023-02-08T03:40:22.097Z,40.13
2023-02-08T03:42:51.818Z,36.05
2023-02-08T03:45:25.068Z,50.95
2023-02-08T03:47:56.019Z,44.10
2023-02-08T03:50:25.119Z,50.55
2023-02-08T03:52:55.019Z,40.90
2023-02-08T03:55:26.535Z,46.20
2023-02-08T03:57:59.483Z,39.38
2023-02-08T04:00:28.987Z,43.10
2023-02-08T04:03:00.470Z,44.60
2023-02-08T04:05:29.417Z,32.22
2023-02-08T04:07:58.582Z,40.33
2023-02-08T04:10:26.600Z,49.60
2023-02-08T04:12:54.421Z,36.92
2023-02-08T04:15:22.268Z,45.40
2023-02-08T04:17:50.203Z,44.75
2023-02-08T04:20:18.207Z,45.65
2023-02-08T04:22:46.146Z,41.90
2023-02-08T04:25:15.545Z,37.65
2023-02-08T04:27:43.861Z,41.63
2023-02-08T04:30:13.149Z,33.63
2023-02-08T04:32:41.237Z,33.80
2023-02-08T04:35:09.260Z,45.08
2023-02-08T04:37:37.073Z,46.00
2023-02-08T04:40:05.623Z,35.42
2023-02-08T04:42:34.836Z,34.72
2023-02-08T04:45:02.652Z,43.08
2023-02-08T04:47:30.418Z,43.17
2023-02-08T04:49:58.200Z,39.35
2023-02-08T04:52:26.050Z,42.17
2023-02-08T04:54:53.926Z,48.72
2023-02-08T04:57:21.782Z,49.28
2023-02-08T04:59:51.164Z,40.42
2023-02-08T05:02:18.969Z,35.97
2023-02-08T05:04:46.810Z,47.75
2023-02-08T05:07:14.594Z,41.88
2023-02-08T05:09:42.455Z,42.85
2023-02-08T05:12:10.295Z,41.58
2023-02-08T05:14:38.161Z,35.20
2023-02-08T05:17:07.372Z,35.92
2023-02-08T05:19:35.189Z,43.40
2023-02-08T05:22:03.127Z,38.08
2023-02-08T05:24:31.109Z,37.30
2023-02-08T05:26:58.880Z,39.65
2023-02-08T05:29:26.962Z,39.70
2023-02-08T05:31:54.804Z,37.08
2023-02-08T05:34:24.107Z,47.65
2023-02-08T05:36:51.963Z,37.55
2023-02-08T05:39:19.815Z,39.90
2023-02-08T05:41:47.605Z,35.28
2023-02-08T05:44:15.424Z,39.35
2023-02-08T05:46:43.391Z,36.45
2023-02-08T05:49:11.269Z,36.38
2023-02-08T05:51:40.497Z,47.45
2023-02-08T05:54:08.339Z,38.17
2023-02-08T05:56:36.231Z,51.67
2023-02-08T05:59:04.885Z,38.00
2023-02-08T06:01:32.800Z,35.10
2023-02-08T06:04:01.003Z,36.45
2023-02-08T06:06:29.243Z,29.35
2023-02-08T06:08:58.492Z,37.20
2023-02-08T06:11:28.574Z,31.27
2023-02-08T06:13:56.873Z,29.77
2023-02-08T06:16:24.853Z,35.03
2023-02-08T06:18:52.630Z,35.75
2023-02-08T06:21:20.408Z,39.42
2023-02-08T06:23:48.246Z,30.42
2023-02-08T06:26:17.964Z,34.40
2023-02-08T06:28:45.812Z,34.25
2023-02-08T06:31:15.401Z,27.67
2023-02-08T06:33:43.291Z,30.60
2023-02-08T06:36:11.392Z,29.02
2023-02-08T06:38:39.336Z,31.25
2023-02-08T06:41:07.145Z,28.45
2023-02-08T06:43:36.389Z,33.40
2023-02-08T06:46:05.000Z,31.58
2023-02-08T06:48:33.081Z,34.80
2023-02-08T06:51:00.979Z,37.67
2023-02-08T06:53:28.718Z,29.67
2023-02-08T06:55:56.728Z,33.42
2023-02-08T06:58:24.688Z,32.50
2023-02-08T07:00:53.876Z,30.73
2023-02-08T07:03:22.666Z,30.25
2023-02-08T07:06:04.049Z,43.15
2023-02-08T07:08:32.261Z,34.72
2023-02-08T07:11:00.069Z,33.97
2023-02-08T07:13:28.025Z,31.67
2023-02-08T07:15:57.201Z,30.83
2023-02-08T07:18:25.113Z,38.63
2023-02-08T07:20:53.066Z,33.28
2023-02-08T07:23:20.921Z,31.23
2023-02-08T07:25:58.281Z,25.63
2023-02-08T07:28:26.520Z,38.63
2023-02-08T07:30:54.844Z,25.77
2023-02-08T07:33:25.019Z,26.88
2023-02-08T07:35:53.222Z,27.17
2023-02-08T07:38:21.108Z,26.40
2023-02-08T07:40:48.948Z,23.52
2023-02-08T07:43:16.833Z,39.08
2023-02-08T07:45:44.727Z,32.42
2023-02-08T07:48:12.510Z,27.75
2023-02-08T07:50:41.932Z,28.23
2023-02-08T07:53:10.488Z,30.35
2023-02-08T07:55:38.305Z,32.80
2023-02-08T07:58:06.123Z,29.98
2023-02-08T08:00:33.912Z,32.83
2023-02-08T08:03:01.738Z,26.73
2023-02-08T08:05:29.596Z,35.53
2023-02-08T08:07:58.855Z,28.40
2023-02-08T08:10:26.711Z,29.60
2023-02-08T08:12:54.660Z,23.85
2023-02-08T08:15:22.409Z,20.45
2023-02-08T08:17:50.281Z,27.25
2023-02-08T08:20:18.629Z,31.02
2023-02-08T08:22:47.589Z,32.90
2023-02-08T08:25:16.947Z,29.85
2023-02-08T08:27:45.041Z,25.15
2023-02-08T08:30:15.183Z,28.60
2023-02-08T08:32:43.094Z,27.38
2023-02-08T08:35:11.534Z,19.85
2023-02-08T08:37:39.370Z,24.10
2023-02-08T08:40:08.843Z,24.75
2023-02-08T08:42:39.838Z,22.05
2023-02-08T08:45:09.552Z,21.33
2023-02-08T08:47:37.317Z,17.70
2023-02-08T08:50:05.347Z,21.48
2023-02-08T08:52:33.495Z,30.35
2023-02-08T08:55:01.324Z,22.20
2023-02-08T08:57:29.192Z,22.98
2023-02-08T08:59:58.470Z,20.73
2023-02-08T09:02:26.486Z,18.20
2023-02-08T09:04:54.337Z,21.38
2023-02-08T09:07:22.211Z,17.27
2023-02-08T09:09:50.104Z,17.20
2023-02-08T09:12:18.328Z,21.65
2023-02-08T09:14:46.179Z,18.85
2023-02-08T09:17:15.503Z,25.48
2023-02-08T09:19:43.543Z,24.58
2023-02-08T09:22:11.345Z,18.10
2023-02-08T09:24:40.126Z,17.00
2023-02-08T09:27:08.077Z,18.70
2023-02-08T09:29:36.171Z,15.27
2023-02-08T09:32:04.495Z,28.27
2023-02-08T09:34:33.638Z,13.77
2023-02-08T09:37:01.463Z,25.20
2023-02-08T09:39:29.326Z,22.17
2023-02-08T09:42:30.128Z,13.90
2023-02-08T09:45:18.895Z,20.92
2023-02-08T09:47:53.417Z,21.60
2023-02-08T09:50:29.617Z,21.85
2023-02-08T09:53:05.350Z,23.52
2023-02-08T09:55:38.198Z,11.68
2023-02-08T09:58:17.814Z,18.38
2023-02-08T10:00:50.902Z,22.65
2023-02-08T10:03:30.290Z,18.50
2023-02-08T10:05:59.677Z,23.00
2023-02-08T10:08:35.196Z,14.60
2023-02-08T10:11:21.993Z,26.42
2023-02-08T10:14:17.180Z,18.23
2023-02-08T10:16:56.588Z,21.70
2023-02-08T10:19:42.585Z,17.73
2023-02-08T10:22:25.796Z,16.92
2023-02-08T10:25:12.921Z,15.45
2023-02-08T10:27:49.010Z,14.32
2023-02-08T10:30:25.962Z,16.90
2023-02-08T10:33:01.575Z,15.25
2023-02-08T10:35:37.050Z,14.23
2023-02-08T10:38:44.099Z,21.38
2023-02-08T10:41:19.608Z,18.73
2023-02-08T10:43:52.803Z,24.30
2023-02-08T10:46:26.873Z,11.48
2023-02-08T10:49:05.010Z,12.23
2023-02-08T10:51:32.884Z,23.08
2023-02-08T10:54:02.142Z,13.80
2023-02-08T10:56:40.634Z,15.63
2023-02-08T10:59:16.384Z,13.05
2023-02-08T11:01:46.341Z,17.60
2023-02-08T11:04:14.831Z,16.42
2023-02-08T11:06:44.247Z,16.40
2023-02-08T11:09:24.934Z,11.57
2023-02-08T11:11:53.666Z,16.48
2023-02-08T11:14:34.984Z,21.05
2023-02-08T11:17:03.281Z,12.93
2023-02-08T11:19:42.534Z,13.70
2023-02-08T11:22:17.169Z,15.73
2023-02-08T11:24:50.492Z,14.50
2023-02-08T11:27:30.019Z,8.80
2023-02-08T11:30:20.567Z,11.32
2023-02-08T11:32:50.734Z,9.45
2023-02-08T11:35:25.700Z,12.30
2023-02-08T11:37:55.324Z,9.27
2023-02-08T11:40:28.957Z,12.57
2023-02-08T11:42:57.792Z,12.80
2023-02-08T11:45:28.562Z,12.18
2023-02-08T11:47:57.182Z,16.25
2023-02-08T11:50:28.026Z,11.00
2023-02-08T11:53:00.475Z,9.02
2023-02-08T11:55:32.973Z,14.35
2023-02-08T11:58:03.700Z,15.60
2023-02-08T12:00:34.161Z,17.77
2023-02-08T12:03:05.105Z,11.05
2023-02-08T12:05:42.871Z,10.35
2023-02-08T12:08:24.792Z,13.13
2023-02-08T12:11:08.996Z,10.20
2023-02-08T12:13:59.771Z,23.52
2023-02-08T12:16:42.875Z,12.82
2023-02-08T12:19:34.629Z,13.57
2023-02-08T12:22:09.222Z,18.80
2023-02-08T12:24:48.455Z,14.15
2023-02-08T12:27:29.455Z,19.58
2023-02-08T12:30:04.288Z,13.63
2023-02-08T12:32:51.347Z,9.75
2023-02-08T12:35:43.538Z,11.88
2023-02-08T12:38:41.902Z,19.08
2023-02-08T12:41:19.711Z,13.38
2023-02-08T12:43:58.407Z,12.68
2023-02-08T12:46:47.823Z,16.25
2023-02-08T12:49:36.842Z,17.63
2023-02-08T12:52:13.669Z,15.07
2023-02-08T12:54:46.110Z,9.63
2023-02-08T12:57:17.797Z,13.73
2023-02-08T12:59:49.414Z,12.00
2023-02-08T13:02:21.859Z,15.75
2023-02-08T13:04:55.016Z,14.13
2023-02-08T13:07:28.484Z,16.20
2023-02-08T13:10:02.627Z,13.13
2023-02-08T13:12:33.500Z,13.88
2023-02-08T13:15:09.240Z,12.95
2023-02-08T13:17:47.028Z,15.23
2023-02-08T13:20:33.536Z,10.55
2023-02-08T13:23:04.672Z,7.72
2023-02-08T13:25:37.368Z,12.10
2023-02-08T13:28:09.046Z,8.30
2023-02-08T13:30:40.505Z,14.15
2023-02-08T13:33:17.610Z,11.55
2023-02-08T13:35:51.441Z,11.55
2023-02-08T13:38:29.405Z,12.10
2023-02-08T13:41:05.799Z,8.82
2023-02-08T13:43:40.335Z,16.40
2023-02-08T13:46:11.706Z,11.68
2023-02-08T13:48:46.068Z,12.23
2023-02-08T13:52:03.458Z,12.88
2023-02-08T13:54:31.454Z,11.00
2023-02-08T13:56:59.343Z,9.30
2023-02-08T13:59:38.105Z,10.70
2023-02-08T14:02:31.914Z,10.63
2023-02-08T14:05:44.872Z,10.85
2023-02-08T14:08:22.403Z,10.38
2023-02-08T14:11:03.474Z,10.73
2023-02-08T14:13:36.210Z,11.93
2023-02-08T14:16:29.431Z,9.13
2023-02-08T14:19:01.454Z,11.90
2023-02-08T14:21:34.359Z,15.43
2023-02-08T14:24:06.037Z,10.93
2023-02-08T14:26:34.656Z,9.38
2023-02-08T14:29:06.326Z,11.30
2023-02-08T14:31:43.609Z,13.20
2023-02-08T14:34:29.671Z,14.70
2023-02-08T14:37:04.227Z,9.73
2023-02-08T14:39:35.478Z,11.65
2023-02-08T14:42:07.284Z,12.93
2023-02-08T14:45:00.512Z,10.43
2023-02-08T14:47:54.481Z,9.98
2023-02-08T14:50:27.173Z,8.48
2023-02-08T14:53:02.257Z,9.95
2023-02-08T14:55:33.466Z,7.25
2023-02-08T14:58:02.835Z,7.43
2023-02-08T15:00:34.872Z,7.05
2023-02-08T15:03:05.967Z,10.13
2023-02-08T15:05:42.208Z,8.27
2023-02-08T15:08:10.331Z,8.82
2023-02-08T15:10:44.842Z,12.48
2023-02-08T15:13:20.417Z,8.95
2023-02-08T15:15:53.449Z,12.27
2023-02-08T15:18:23.893Z,13.10
2023-02-08T15:21:03.291Z,10.25
2023-02-08T15:23:31.968Z,10.82
2023-02-08T15:26:02.878Z,15.73
2023-02-08T15:28:32.380Z,14.68
2023-02-08T15:31:03.495Z,13.80
2023-02-08T15:33:32.311Z,12.40
2023-02-08T15:36:06.283Z,11.30
2023-02-08T15:38:38.509Z,14.70
2023-02-08T15:41:08.547Z,11.90
2023-02-08T15:43:37.759Z,16.02
2023-02-08T15:46:08.463Z,16.23
2023-02-08T15:48:45.665Z,11.85
2023-02-08T15:51:16.248Z,11.20
2023-02-08T15:53:47.909Z,14.40
2023-02-08T15:56:30.410Z,13.60
2023-02-08T15:59:05.268Z,16.33
2023-02-08T16:01:33.439Z,12.25
2023-02-08T16:04:08.338Z,15.60
2023-02-08T16:06:40.408Z,14.80
2023-02-08T16:09:08.336Z,11.45
2023-02-08T16:11:37.428Z,14.25
2023-02-08T16:14:07.817Z,9.23
2023-02-08T16:16:41.742Z,12.23
2023-02-08T16:19:22.556Z,9.57
2023-02-08T16:21:52.975Z,13.00
2023-02-08T16:24:24.193Z,10.77
2023-02-08T16:27:02.642Z,9.32
2023-02-08T16:29:32.328Z,13.07
2023-02-08T16:32:13.135Z,14.48
2023-02-08T16:34:41.814Z,12.80
2023-02-08T16:37:24.244Z,12.07
2023-02-08T16:39:54.900Z,11.90
2023-02-08T16:42:30.263Z,13.77
2023-02-08T16:45:17.937Z,13.38
2023-02-08T16:47:49.493Z,13.65
2023-02-08T16:50:19.810Z,15.07
2023-02-08T16:52:54.067Z,12.18
2023-02-08T16:55:24.616Z,11.90
2023-02-08T16:57:53.608Z,14.15
2023-02-08T17:00:25.610Z,12.07
2023-02-08T17:02:54.251Z,11.75
2023-02-08T17:05:23.682Z,11.52
2023-02-08T17:07:53.347Z,11.25
2023-02-08T17:10:28.942Z,13.40
2023-02-08T17:13:07.026Z,11.55
2023-02-08T17:15:45.906Z,9.57
2023-02-08T17:18:14.280Z,14.70
2023-02-08T17:20:42.679Z,9.52
2023-02-08T17:23:12.177Z,12.23
2023-02-08T17:25:40.358Z,9.55
2023-02-08T17:28:12.692Z,11.30
2023-02-08T17:30:43.158Z,10.32
2023-02-08T17:33:18.134Z,10.85
2023-02-08T17:35:47.495Z,9.98
2023-02-08T17:38:17.409Z,11.68
2023-02-08T17:40:46.011Z,9.65
2023-02-08T17:43:14.657Z,8.48
2023-02-08T17:45:44.940Z,10.18
2023-02-08T17:48:14.485Z,11.43
2023-02-08T17:50:44.248Z,9.43
2023-02-08T17:53:12.298Z,11.70
2023-02-08T17:55:44.140Z,9.35
2023-02-08T17:58:12.111Z,11.80
2023-02-08T18:00:39.970Z,11.60
2023-02-08T18:03:07.832Z,9.93
2023-02-08T18:05:36.947Z,12.15
2023-02-08T18:08:04.902Z,9.85
2023-02-08T18:10:32.883Z,10.77
2023-02-08T18:13:02.146Z,13.32
2023-02-08T18:15:29.980Z,9.93
2023-02-08T18:17:58.055Z,10.77
2023-02-08T18:20:25.874Z,10.05
2023-02-08T18:22:53.691Z,11.10
2023-02-08T18:25:21.701Z,11.73
2023-02-08T18:27:50.071Z,10.98
2023-02-08T18:30:20.385Z,14.13
2023-02-08T18:32:48.317Z,12.52
2023-02-08T18:35:16.144Z,11.65
2023-02-08T18:37:43.974Z,17.02
2023-02-08T18:40:12.842Z,12.98
2023-02-08T18:42:40.709Z,11.55
2023-02-08T18:45:09.893Z,12.82
2023-02-08T18:47:39.534Z,12.80
2023-02-08T18:50:09.187Z,13.30
2023-02-08T18:52:37.335Z,12.45
2023-02-08T18:55:05.506Z,12.75
2023-02-08T18:57:33.453Z,12.48
2023-02-08T19:00:01.232Z,11.05
2023-02-08T19:02:29.118Z,11.80
2023-02-08T19:04:58.612Z,10.80
2023-02-08T19:07:26.457Z,15.88
2023-02-08T19:09:54.295Z,10.35
2023-02-08T19:12:22.163Z,11.02
2023-02-08T19:14:51.210Z,11.02
2023-02-08T19:17:19.297Z,10.18
2023-02-08T19:19:47.421Z,14.77
2023-02-08T19:22:16.538Z,9.90
2023-02-08T19:24:44.565Z,12.35
2023-02-08T19:27:12.407Z,14.90
2023-02-08T19:29:40.317Z,10.95
2023-02-08T19:32:09.049Z,12.15
2023-02-08T19:34:37.017Z,13.65
2023-02-08T19:37:04.795Z,10.90
2023-02-08T19:39:34.074Z,13.57
2023-02-08T19:42:01.911Z,12.68
2023-02-08T19:44:30.779Z,12.90
2023-02-08T19:46:59.678Z,10.93
2023-02-08T19:49:28.473Z,10.40
2023-02-08T19:51:56.817Z,12.82
2023-02-08T19:54:27.393Z,10.27
2023-02-08T19:56:56.626Z,12.48
2023-02-08T19:59:27.423Z,11.32
2023-02-08T20:01:56.563Z,11.88
2023-02-08T20:04:24.456Z,11.95
2023-02-08T20:06:53.341Z,11.90
2023-02-08T20:09:21.731Z,14.82
2023-02-08T20:11:57.342Z,13.07
2023-02-08T20:14:29.129Z,14.68
2023-02-08T20:16:57.042Z,14.18
2023-02-08T20:19:24.847Z,15.20
2023-02-08T20:21:53.381Z,14.20
2023-02-08T20:24:21.207Z,13.93
2023-02-08T20:26:50.001Z,13.07
2023-02-08T20:29:18.266Z,12.73
2023-02-08T20:31:48.876Z,14.88
2023-02-08T20:34:18.919Z,14.20
2023-02-08T20:37:05.285Z,15.50
2023-02-08T20:39:34.672Z,14.60
2023-02-08T20:42:02.566Z,14.60
2023-02-08T20:44:31.527Z,13.52
2023-02-08T20:47:00.809Z,12.30
2023-02-08T20:49:29.446Z,14.45
2023-02-08T20:51:57.345Z,12.70
2023-02-08T20:54:25.542Z,15.52
2023-02-08T20:56:54.120Z,17.63
2023-02-08T20:59:22.712Z,11.55
2023-02-08T21:01:50.667Z,11.75
2023-02-08T21:04:23.192Z,9.45
2023-02-08T21:06:51.804Z,11.27
2023-02-08T21:09:21.097Z,13.98
2023-02-08T21:11:49.859Z,12.40
2023-02-08T21:14:20.740Z,13.50
2023-02-08T21:16:49.416Z,12.85
2023-02-08T21:19:20.575Z,16.35
2023-02-08T21:21:51.665Z,15.45
2023-02-08T21:24:19.653Z,12.73
2023-02-08T21:26:47.762Z,13.55
2023-02-08T21:29:15.561Z,14.23
2023-02-08T21:31:43.670Z,11.05
2023-02-08T21:34:12.954Z,13.63
2023-02-08T21:36:42.162Z,17.27
2023-02-08T21:39:09.945Z,17.30
2023-02-08T21:41:37.844Z,15.25
2023-02-08T21:44:08.298Z,14.25
2023-02-08T21:46:36.339Z,16.55
2023-02-08T21:49:23.266Z,17.77
2023-02-08T21:52:10.351Z,15.57
2023-02-08T21:54:44.669Z,20.65
2023-02-08T21:57:15.917Z,17.85
2023-02-08T21:59:44.448Z,19.58
2023-02-08T22:02:16.063Z,19.98
2023-02-08T22:05:01.713Z,18.80
2023-02-08T22:07:41.419Z,19.38
2023-02-08T22:10:10.332Z,17.63
2023-02-08T22:12:40.325Z,17.17
2023-02-08T22:15:09.182Z,17.13
2023-02-08T22:17:37.147Z,20.50
2023-02-08T22:20:06.243Z,16.83
2023-02-08T22:22:35.384Z,20.17
2023-02-08T22:25:03.184Z,16.52
2023-02-08T22:27:31.264Z,19.35
2023-02-08T22:29:59.147Z,17.00
2023-02-08T22:32:27.108Z,19.88
2023-02-08T22:34:54.967Z,17.15
2023-02-08T22:37:22.857Z,22.63
2023-02-08T22:39:52.136Z,22.33
2023-02-08T22:42:19.949Z,23.65
2023-02-08T22:44:47.868Z,19.30
2023-02-08T22:47:15.741Z,22.40
2023-02-08T22:49:43.554Z,21.58
2023-02-08T22:52:11.729Z,25.90
2023-02-08T22:54:39.883Z,20.35
2023-02-08T22:57:09.990Z,23.90
2023-02-08T22:59:38.862Z,25.42
2023-02-08T23:02:07.177Z,23.65
2023-02-08T23:04:35.009Z,25.58
2023-02-08T23:07:03.306Z,23.13
2023-02-08T23:09:31.232Z,23.02
2023-02-08T23:11:59.000Z,19.92
2023-02-08T23:14:29.223Z,24.50
2023-02-08T23:16:57.032Z,22.33
2023-02-08T23:19:25.054Z,23.45
2023-02-08T23:21:52.976Z,23.17
2023-02-08T23:24:20.949Z,21.85
2023-02-08T23:26:48.777Z,20.17
2023-02-08T23:29:16.697Z,18.85
2023-02-08T23:31:46.078Z,17.17
2023-02-08T23:34:14.081Z,20.55
2023-02-08T23:36:42.070Z,20.05
2023-02-08T23:39:09.939Z,17.67
2023-02-08T23:41:37.739Z,17.65
2023-02-08T23:44:05.890Z,20.35
2023-02-08T23:46:34.160Z,19.60
2023-02-08T23:49:03.373Z,14.98
2023-02-08T23:51:31.326Z,16.60
2023-02-08T23:53:59.132Z,18.77
2023-02-08T23:56:29.014Z,16.13
2023-02-08T23:58:58.976Z,22.67
